Impacts METAR Board
IDs:

KMSP - Minneapolis-St Paul, MN, US

Updated at: 2000 UTC 02 Oct 2022
Potential Impact None Slight Moderate High
Time 02/08Z 02/09Z 02/10Z 02/11Z 02/12Z 02/13Z 02/14Z 02/15Z 02/16Z 02/17Z 02/18Z 02/19Z 02/20Z
Temp57 57 56 55 55 56 57 61 65 68 72 73 73
Dewpt51 52 52 52 51 52 51 50 48 47 47 47 47
Altim30.32 30.33 30.34 30.33 30.34 30.36 30.38 30.38 30.38 30.37 30.34 30.32 30.29
VIS10 10 10 10 10 10 10 10 10 10 10 10 10
CIG140 140 140 150 150 130 -- 250 250 -- -- -- 250
CoverOVCBKNBKNOVCBKNBKNSCTBKNBKNSCTSCTSCTBKN
FltCatVFRVFRVFRVFRVFRVFRVFRVFRVFRVFRVFRVFRVFR
WX--------------------------
WDir504060901101401501601401401300140
WSpd3 5 5 6 6 3 4 8 10 7 11 6 8
WGst-- -- -- -- -- -- -- -- -- -- 18 -- --
Raw hourly METARs
KMSP 020753Z 05003KT 10SM OVC140 14/11 A3032 RMK AO2 SLP266 T01390106
KMSP 020853Z 04005KT 10SM BKN140 14/11 A3033 RMK AO2 SLP270 T01390111 53005
KMSP 020953Z 06005KT 10SM BKN140 13/11 A3034 RMK AO2 SLP274 T01330111
KMSP 021053Z 09006KT 10SM OVC150 13/11 A3033 RMK AO2 SLP273 T01280111
KMSP 021153Z 11006KT 10SM FEW100 BKN150 BKN250 13/11 A3034 RMK AO2 SLP275 T01280106 10144 20128 51004
KMSP 021253Z 14003KT 10SM FEW100 BKN130 BKN250 13/11 A3036 RMK AO2 SLP282 VIRGA T01330111
KMSP 021353Z 15004KT 10SM FEW100 SCT130 SCT170 SCT250 14/11 A3038 RMK AO2 SLP289 T01390106
KMSP 021453Z 16008KT 10SM FEW100 SCT140 SCT170 BKN250 16/10 A3038 RMK AO2 SLP289 T01610100 51014
KMSP 021553Z 14010KT 10SM SCT100 SCT140 BKN250 18/09 A3038 RMK AO2 SLP286 T01830089
KMSP 021653Z 14007KT 10SM FEW100 SCT140 SCT250 20/08 A3037 RMK AO2 SLP281 T02000083
KMSP 021753Z 13011G18KT 10SM FEW120 SCT180 SCT250 22/08 A3034 RMK AO2 SLP273 T02220083 10222 20128 58014
KMSP 021853Z VRB06KT 10SM SCT110 SCT170 SCT250 23/08 A3032 RMK AO2 SLP267 T02280083
KMSP 021953Z 14008KT 10SM SCT120 SCT170 BKN250 23/08 A3029 RMK AO2 SLP256 T02280083



Page loaded:  20:14 UTC  |   01:14 PM Pacific  |   02:14 PM Mountain  |   03:14 PM Central  |   04:14 PM Eastern

 

ADVISORIES

FORECASTS

FORECASTS

OBSERVATIONS

USER TOOLS

ABOUT US